Time;durP1;ratioP1;P1;durP2;ratioP2;P2;SDS_P1;SDS_P2;PMS_P1;PMS_P2;Temp;Humidity;BMP_temperature;BMP_pressure;BME280_temperature;BME280_humidity;BME280_pressure;Samples;Min_cycle;Max_cycle;Signal;HPM_P1;HPM_P2
2021/05/23 00:00:35;;;;;;;1.08;0.90;;;13.30;53.20;;;13.63;45.01;97213.16;5005146;28;20063;-48
2021/05/23 00:03:11;;;;;;;0.80;0.80;;;13.30;53.60;;;13.58;45.24;97224.44;5005362;28;20359;-54
2021/05/23 00:05:40;;;;;;;1.13;0.93;;;13.20;53.80;;;13.51;45.49;97227.03;5004725;28;20344;-53
2021/05/23 00:08:11;;;;;;;1.67;1.10;;;13.10;54.10;;;13.50;45.54;97235.25;5003821;28;20355;-48
2021/05/23 00:10:43;;;;;;;1.38;0.90;;;13.10;54.20;;;13.46;45.60;97225.97;5005322;28;20061;-47
2021/05/23 00:13:14;;;;;;;1.40;0.90;;;13.10;54.30;;;13.48;45.41;97231.94;5004861;28;20072;-52
2021/05/23 00:16:20;;;;;;;0.73;0.68;;;13.20;54.10;;;13.37;46.51;97233.25;5005326;28;20072;-51
2021/05/23 00:18:51;;;;;;;3.28;1.02;;;13.20;54.20;;;13.43;45.80;97223.66;5004771;28;20262;-50
2021/05/23 00:21:23;;;;;;;1.45;0.95;;;13.20;54.10;;;13.44;45.87;97217.28;5005189;28;20054;-51
2021/05/23 00:23:52;;;;;;;1.88;1.10;;;13.10;54.50;;;13.44;45.80;97230.66;5005462;28;20049;-48
2021/05/23 00:26:20;;;;;;;1.40;0.93;;;13.20;54.40;;;13.41;46.34;97231.03;5004531;28;20063;-49
2021/05/23 00:28:49;;;;;;;1.20;0.80;;;13.20;54.50;;;13.44;46.09;97231.47;5004824;28;20050;-52
2021/05/23 00:31:29;;;;;;;1.15;1.00;;;13.20;54.60;;;13.43;46.24;97235.16;5004167;28;20075;-48
2021/05/23 00:33:58;;;;;;;1.25;0.90;;;13.10;54.90;;;13.45;46.48;97235.81;5006915;28;20049;-52
2021/05/23 00:36:26;;;;;;;1.23;1.00;;;13.10;55.70;;;13.46;47.18;97228.63;5005636;28;20606;-49
2021/05/23 00:38:55;;;;;;;0.85;0.75;;;13.10;56.20;;;13.39;48.05;97226.69;5005935;28;20061;-53
2021/05/23 00:41:24;;;;;;;2.17;1.00;;;13.00;58.90;;;13.22;48.78;97216.38;5003615;28;20132;-53
2021/05/23 00:43:52;;;;;;;1.52;0.90;;;12.70;58.90;;;13.25;48.01;97229.41;5003520;28;20522;-51
2021/05/23 00:46:20;;;;;;;2.83;0.98;;;12.70;58.30;;;13.25;48.67;97232.88;5004762;28;20054;-49
2021/05/23 00:48:49;;;;;;;2.83;1.20;;;12.80;58.90;;;13.26;48.90;97245.25;5004302;28;20061;-52
2021/05/23 00:51:17;;;;;;;0.95;0.88;;;12.80;58.80;;;13.29;48.72;97244.84;5003411;28;20050;-55
2021/05/23 00:53:45;;;;;;;1.60;1.00;;;12.90;59.00;;;13.31;48.84;97250.88;5005456;28;20359;-51
2021/05/23 00:56:17;;;;;;;2.53;0.90;;;12.90;58.90;;;13.30;49.74;97249.22;5004297;28;20050;-55
2021/05/23 00:58:47;;;;;;;1.90;1.00;;;12.90;59.80;;;13.26;49.80;97242.56;5007161;28;20104;-50
2021/05/23 01:01:44;;;;;;;1.15;1.00;;;12.90;60.10;;;13.19;50.29;97249.69;5023859;28;20072;-52
2021/05/23 01:04:13;;;;;;;2.72;1.10;;;12.80;63.10;;;13.13;50.68;97231.72;5008619;28;20329;-50
2021/05/23 01:06:41;;;;;;;2.58;0.90;;;12.70;61.60;;;13.11;50.61;97231.09;5009259;28;20050;-54
2021/05/23 01:09:10;;;;;;;1.05;0.88;;;12.60;61.50;;;13.07;50.97;97227.13;5008891;28;20050;-55
2021/05/23 01:11:41;;;;;;;0.98;0.88;;;12.60;61.10;;;13.03;50.97;97240.03;5007786;28;20365;-49
2021/05/23 01:14:17;;;;;;;1.13;0.90;;;12.50;62.60;;;12.97;51.36;97243.47;5009204;28;20072;-52
2021/05/23 01:16:56;;;;;;;0.80;0.73;;;12.50;62.70;;;12.93;51.91;97248.34;5007450;28;20075;-52
2021/05/23 01:19:44;;;;;;;1.65;0.90;;;12.50;64.70;;;12.90;52.40;97248.69;5006655;28;20330;-53
2021/05/23 01:22:25;;;;;;;0.77;0.75;;;12.40;64.90;;;12.82;53.06;97254.16;5008775;28;20054;-51
2021/05/23 01:25:10;;;;;;;1.80;1.08;;;12.30;65.40;;;12.75;53.17;97254.03;5007806;28;20088;-51
2021/05/23 01:27:45;;;;;;;1.50;1.08;;;12.30;66.70;;;12.73;52.93;97264.06;5008773;28;20061;-54
2021/05/23 01:30:28;;;;;;;3.40;1.60;;;12.20;65.70;;;12.74;52.91;97275.63;5007370;28;20058;-52
2021/05/23 01:32:59;;;;;;;1.17;0.90;;;12.20;65.30;;;12.76;52.25;97276.25;5007292;28;20213;-49
2021/05/23 01:35:37;;;;;;;2.03;1.00;;;12.20;63.90;;;12.79;52.42;97275.88;5007371;28;20243;-52
2021/05/23 01:38:18;;;;;;;1.73;1.63;;;12.30;64.50;;;12.77;52.23;97284.06;5040315;28;20250;-53
2021/05/23 01:40:49;;;;;;;1.08;0.90;;;12.30;64.30;;;12.77;52.27;97283.25;5047216;28;20055;-51
2021/05/23 01:43:19;;;;;;;1.70;1.10;;;12.30;63.50;;;12.77;51.96;97285.91;5047921;28;20374;-48
2021/05/23 01:45:47;;;;;;;1.65;0.90;;;12.30;62.80;;;12.77;51.67;97291.25;5048317;28;20057;-52
2021/05/23 01:48:16;;;;;;;1.55;0.80;;;12.40;62.80;;;12.79;52.02;97287.41;5029953;28;20057;-50
2021/05/23 01:50:44;;;;;;;2.25;0.90;;;12.40;63.70;;;12.80;52.17;97286.38;5046162;28;20057;-51
2021/05/23 01:53:12;;;;;;;1.15;0.93;;;12.50;62.90;;;12.76;52.38;97287.75;5048497;28;20061;-52
2021/05/23 01:55:40;;;;;;;3.22;1.40;;;12.40;63.30;;;12.65;53.42;97290.88;5047344;28;20052;-52
2021/05/23 01:58:09;;;;;;;1.80;1.40;;;12.20;65.50;;;12.67;53.43;97293.38;5046458;28;20363;-51
2021/05/23 02:00:48;;;;;;;1.58;1.25;;;12.20;65.80;;;12.68;53.36;97287.84;5046360;28;20049;-50
2021/05/23 02:03:20;;;;;;;2.30;0.90;;;12.20;66.80;;;12.69;53.53;97299.38;5030462;28;20051;-49
2021/05/23 02:05:52;;;;;;;6.10;1.10;;;12.20;66.80;;;12.67;53.85;97307.56;5047876;28;20045;-53
2021/05/23 02:08:25;;;;;;;2.13;0.90;;;12.10;67.40;;;12.66;54.72;97305.91;5047244;28;20045;-52
2021/05/23 02:10:58;;;;;;;1.33;1.02;;;12.20;67.60;;;12.65;54.92;97327.44;5047232;28;20045;-49
2021/05/23 02:13:27;;;;;;;1.92;0.98;;;12.10;68.20;;;12.56;55.95;97346.22;5031141;28;20063;-50
2021/05/23 02:15:56;;;;;;;4.60;1.30;;;12.00;72.00;;;12.42;56.83;97339.00;5046997;28;20045;-51
2021/05/23 02:18:24;;;;;;;1.23;0.70;;;11.80;71.50;;;12.04;60.12;97344.31;5046243;28;20059;-49
2021/05/23 02:20:53;;;;;;;1.25;0.82;;;11.40;76.30;;;11.88;58.97;97339.03;5046294;28;20049;-51
2021/05/23 02:23:24;;;;;;;3.27;0.93;;;11.10;75.50;;;11.81;60.51;97331.75;5047263;28;20069;-50
2021/05/23 02:25:53;;;;;;;2.10;1.80;;;11.10;79.60;;;11.76;59.38;97320.78;5046230;28;20048;-49
2021/05/23 02:28:22;;;;;;;2.80;1.17;;;11.10;76.30;;;11.72;59.10;97321.31;5046344;28;20053;-53
2021/05/23 02:30:54;;;;;;;2.73;1.10;;;11.00;77.20;;;11.71;60.24;97322.31;5046749;28;20045;-48
2021/05/23 02:33:25;;;;;;;2.20;1.57;;;11.00;79.10;;;11.60;60.20;97327.03;5047067;28;20053;-48
2021/05/23 02:35:55;;;;;;;2.83;0.90;;;10.90;78.50;;;11.50;60.46;97323.78;5047110;28;20059;-52
2021/05/23 02:38:24;;;;;;;1.37;0.70;;;10.90;84.60;;;11.46;60.76;97310.94;5046521;28;20052;-50
2021/05/23 02:40:54;;;;;;;2.00;0.83;;;10.90;84.10;;;11.45;60.21;97309.31;5046653;28;20207;-49
2021/05/23 02:43:23;;;;;;;0.60;0.60;;;10.90;83.50;;;11.41;60.14;97301.66;5028516;28;20064;-51
2021/05/23 02:45:52;;;;;;;1.77;0.80;;;10.90;82.40;;;11.44;60.34;97311.16;5046327;28;20049;-51
2021/05/23 02:48:20;;;;;;;0.70;0.70;;;10.90;81.80;;;11.44;59.95;97313.81;5048166;28;20075;-52
2021/05/23 02:50:53;;;;;;;1.07;0.80;;;11.00;77.10;;;11.41;60.83;97306.16;5047785;28;20363;-47
2021/05/23 02:53:22;;;;;;;1.08;0.60;;;10.90;77.80;;;11.43;60.17;97304.97;5011918;28;20404;-52
2021/05/23 02:55:51;;;;;;;0.77;0.77;;;10.90;77.50;;;11.50;59.99;97307.78;5046040;28;20068;-54
2021/05/23 02:58:19;;;;;;;1.23;0.80;;;10.90;77.20;;;11.48;59.90;97311.63;5046500;28;20057;-51
2021/05/23 03:00:48;;;;;;;2.27;1.20;;;11.00;76.30;;;11.51;59.91;97313.94;5046155;28;20287;-51
2021/05/23 03:03:17;;;;;;;1.20;0.90;;;10.90;76.50;;;11.50;60.17;97309.63;5048380;28;20235;-52
2021/05/23 03:05:46;;;;;;;1.87;1.00;;;10.90;77.30;;;11.48;60.18;97319.63;5046262;28;20056;-47
2021/05/23 03:08:15;;;;;;;0.60;0.60;;;10.90;76.30;;;11.47;59.91;97323.28;5046890;28;20053;-52
2021/05/23 03:10:52;;;;;;;1.77;0.70;;;10.90;78.20;;;11.43;61.34;97314.81;5045529;28;20200;-52
2021/05/23 03:13:21;;;;;;;1.77;0.80;;;10.90;76.90;;;11.43;59.96;97322.81;5046432;28;20249;-50
2021/05/23 03:15:49;;;;;;;1.57;0.80;;;10.90;76.40;;;11.40;60.19;97333.81;5046610;28;20045;-52
2021/05/23 03:18:18;;;;;;;1.33;0.90;;;10.80;76.80;;;11.35;59.92;97339.66;5045813;28;20053;-50
2021/05/23 03:20:46;;;;;;;0.70;0.70;;;10.80;76.20;;;11.34;60.46;97353.16;5044813;28;20051;-50
2021/05/23 03:23:14;;;;;;;1.83;1.10;;;10.80;76.30;;;11.34;60.44;97358.47;5044934;28;20239;-50
2021/05/23 03:25:43;;;;;;;2.10;0.73;;;10.80;77.10;;;11.31;60.30;97362.34;5045629;28;20254;-50
2021/05/23 03:28:11;;;;;;;1.03;0.90;;;10.90;76.60;;;11.30;60.74;97368.69;5045560;28;20052;-48
2021/05/23 03:30:42;;;;;;;0.80;0.80;;;10.80;76.50;;;11.30;60.71;97373.16;5045784;28;20092;-51
2021/05/23 03:33:11;;;;;;;1.43;0.70;;;10.80;76.50;;;11.28;60.29;97370.66;5046190;28;20063;-53
2021/05/23 03:35:41;;;;;;;1.13;0.90;;;10.80;76.70;;;11.23;60.33;97368.53;5043831;28;20049;-48
2021/05/23 03:38:10;;;;;;;1.27;0.80;;;10.70;77.30;;;11.20;60.77;97368.03;5045493;28;20342;-50
2021/05/23 03:40:39;;;;;;;4.00;1.03;;;10.70;76.60;;;11.19;60.51;97371.72;5043906;28;20064;-48
2021/05/23 03:43:09;;;;;;;0.77;0.70;;;10.60;76.80;;;11.15;60.58;97376.56;5044031;28;20048;-50
2021/05/23 03:45:38;;;;;;;0.73;0.70;;;10.70;77.00;;;11.15;60.83;97378.41;5044988;28;20049;-53
2021/05/23 03:48:06;;;;;;;0.97;0.70;;;10.60;76.90;;;11.12;60.77;97382.22;5047261;28;20335;-48
2021/05/23 03:50:34;;;;;;;0.63;0.60;;;10.60;76.90;;;11.10;60.97;97378.88;5044972;28;20049;-49
2021/05/23 03:53:03;;;;;;;1.07;0.60;;;10.60;76.80;;;11.04;61.14;97383.06;5044979;28;20056;-48
2021/05/23 03:55:31;;;;;;;0.70;0.70;;;10.50;76.80;;;11.06;60.79;97390.88;5044070;28;20037;-50
2021/05/23 03:58:00;;;;;;;1.17;0.90;;;10.50;77.70;;;11.05;60.98;97402.56;5046422;28;20248;-49
2021/05/23 04:00:29;;;;;;;0.80;0.73;;;10.50;77.70;;;11.03;60.74;97409.88;5043756;28;20068;-50
2021/05/23 04:02:57;;;;;;;1.80;0.70;;;10.50;77.10;;;10.99;60.85;97411.22;5044557;28;20060;-47
2021/05/23 04:05:27;;;;;;;1.07;0.70;;;10.40;77.40;;;10.98;61.37;97422.88;5043580;28;20319;-50
2021/05/23 04:07:58;;;;;;;0.87;0.50;;;10.50;77.50;;;10.99;61.40;97429.84;5045286;28;20078;-50
2021/05/23 04:10:31;;;;;;;1.43;0.80;;;10.50;78.30;;;10.96;60.88;97438.19;5044571;28;20239;-48
2021/05/23 04:13:02;;;;;;;1.50;0.77;;;10.40;77.60;;;10.97;61.15;97437.19;5045994;28;20045;-50
2021/05/23 04:15:31;;;;;;;2.43;0.90;;;10.40;77.60;;;10.99;61.06;97441.38;5043866;28;20055;-52
2021/05/23 04:18:00;;;;;;;3.27;0.80;;;10.50;77.50;;;10.96;61.04;97441.69;5044515;28;20119;-49
2021/05/23 04:20:29;;;;;;;2.10;1.00;;;10.40;77.60;;;10.96;61.40;97451.53;5026315;28;20554;-48
2021/05/23 04:22:57;;;;;;;0.93;0.90;;;10.40;77.40;;;10.97;61.14;97447.84;5045480;28;20063;-50
2021/05/23 04:25:26;;;;;;;1.83;0.90;;;10.50;77.70;;;11.01;60.96;97454.50;5044221;28;20037;-51
2021/05/23 04:27:55;;;;;;;0.60;0.60;;;10.50;77.10;;;11.02;61.22;97458.84;5045949;28;20624;-54
2021/05/23 04:30:25;;;;;;;1.53;0.70;;;10.50;76.90;;;11.06;60.97;97456.66;5052436;23;20053;-53
2021/05/23 04:32:56;;;;;;;1.40;1.00;;;10.50;77.10;;;11.04;60.98;97464.81;5044982;28;20051;-48
2021/05/23 04:35:25;;;;;;;0.73;0.70;;;10.50;77.30;;;11.06;61.10;97468.16;5065308;28;20062;-48
2021/05/23 04:37:54;;;;;;;2.43;0.90;;;10.50;77.30;;;11.07;61.17;97463.66;5065150;28;20253;-51
2021/05/23 04:40:22;;;;;;;1.87;0.60;;;10.50;77.00;;;11.06;60.68;97475.31;5063081;28;20066;-50
2021/05/23 04:42:51;;;;;;;2.20;0.60;;;10.50;76.90;;;11.03;60.82;97469.31;5064838;28;20242;-52
2021/05/23 04:45:37;;;;;;;0.97;0.63;;;10.50;76.90;;;11.02;61.31;97464.97;5063667;28;20234;-51
2021/05/23 04:48:06;;;;;;;1.33;0.70;;;10.50;77.20;;;11.01;61.22;97470.47;5064670;28;20048;-50
2021/05/23 04:50:36;;;;;;;1.33;0.70;;;10.50;77.30;;;11.00;61.26;97469.66;5063339;28;20062;-51
2021/05/23 04:53:05;;;;;;;3.37;0.70;;;10.50;77.30;;;11.01;61.18;97465.16;5065233;28;20055;-52
2021/05/23 04:55:34;;;;;;;2.30;1.20;;;10.50;77.40;;;10.98;61.58;97466.31;5064612;28;20237;-48
2021/05/23 04:58:04;;;;;;;3.53;1.10;;;10.50;77.90;;;10.94;61.73;97483.66;5062973;28;20052;-51
2021/05/23 05:00:32;;;;;;;3.07;1.30;;;10.40;78.20;;;10.93;61.42;97483.81;5046720;28;20056;-50
2021/05/23 05:03:00;;;;;;;0.70;0.70;;;10.40;77.80;;;10.99;61.77;97497.31;5064771;28;20571;-50
2021/05/23 05:05:29;;;;;;;2.60;0.80;;;10.50;78.10;;;11.03;61.64;97503.97;5063658;28;20053;-54
2021/05/23 05:07:57;;;;;;;1.10;0.60;;;10.60;77.50;;;11.07;61.28;97511.59;5064478;28;20048;-48
2021/05/23 05:10:25;;;;;;;1.63;0.90;;;10.60;77.30;;;11.06;61.63;97510.78;5046842;28;20053;-49
2021/05/23 05:12:53;;;;;;;1.40;1.30;;;10.60;77.50;;;11.13;61.47;97516.28;5065604;28;20246;-50
2021/05/23 05:15:26;;;;;;;0.97;0.53;;;10.70;77.10;;;11.08;61.41;97510.63;5065109;28;20052;-51
2021/05/23 05:17:54;;;;;;;1.93;0.73;;;10.60;76.80;;;11.14;61.46;97515.25;5063573;28;20044;-50
2021/05/23 05:20:24;;;;;;;1.70;1.07;;;10.80;76.70;;;11.21;61.49;97519.75;5064374;28;20056;-49
2021/05/23 05:22:52;;;;;;;2.43;0.97;;;10.80;76.50;;;11.21;61.21;97525.09;5064512;28;20066;-52
2021/05/23 05:25:21;;;;;;;1.60;0.87;;;10.80;76.20;;;11.27;61.07;97536.91;5065055;28;20054;-53
2021/05/23 05:27:49;;;;;;;0.80;0.80;;;10.90;76.10;;;11.29;61.40;97547.41;5062387;28;20234;-48
2021/05/23 05:30:19;;;;;;;3.03;1.00;;;10.90;76.00;;;11.25;61.41;97544.25;5063914;28;20053;-55
2021/05/23 05:32:47;;;;;;;2.87;0.90;;;10.80;76.20;;;11.18;61.17;97543.22;5064201;28;20052;-50
2021/05/23 05:35:15;;;;;;;1.13;0.97;;;10.80;76.30;;;11.23;60.96;97549.72;5063219;28;20048;-53
2021/05/23 05:37:44;;;;;;;1.27;1.00;;;10.80;75.80;;;11.26;61.32;97545.06;5063813;28;20052;-52
2021/05/23 05:40:13;;;;;;;1.23;1.00;;;11.00;75.60;;;11.32;61.19;97555.03;5063722;28;20052;-54
2021/05/23 05:42:42;;;;;;;3.93;1.00;;;11.00;76.00;;;11.37;61.02;97560.72;5047803;28;20374;-54
2021/05/23 05:45:11;;;;;;;4.30;1.30;;;11.10;76.00;;;11.40;61.34;97566.53;5067744;28;20334;-50
2021/05/23 05:47:40;;;;;;;1.80;1.10;;;11.10;76.00;;;11.47;61.36;97577.34;5049419;28;20049;-54
2021/05/23 05:50:09;;;;;;;3.73;1.17;;;11.10;75.70;;;11.48;61.24;97571.03;5067357;28;20040;-50
2021/05/23 05:52:37;;;;;;;1.70;1.00;;;11.20;75.90;;;11.53;61.05;97582.00;5067414;28;20048;-52
2021/05/23 05:55:06;;;;;;;2.20;0.90;;;11.20;75.40;;;11.57;60.81;97585.16;5069371;28;20052;-53
2021/05/23 05:57:35;;;;;;;2.23;1.10;;;11.20;75.40;;;11.58;60.83;97585.00;5067948;28;20048;-49
2021/05/23 06:00:06;;;;;;;2.33;0.87;;;11.30;75.50;;;11.63;61.06;97584.50;5067857;28;20063;-51
2021/05/23 06:02:39;;;;;;;2.17;1.00;;;11.30;75.20;;;11.68;61.13;97592.81;5052173;28;20048;-50
2021/05/23 06:05:08;;;;;;;1.27;0.80;;;11.40;75.10;;;11.67;60.71;97596.50;5068254;28;20044;-49
2021/05/23 06:07:36;;;;;;;1.73;0.93;;;11.30;75.00;;;11.62;61.07;97596.19;5066891;28;20040;-51
2021/05/23 06:10:05;;;;;;;2.87;1.00;;;11.20;75.20;;;11.62;60.76;97601.50;5066799;28;20056;-49
2021/05/23 06:12:34;;;;;;;0.93;0.90;;;11.30;75.20;;;11.62;60.76;97597.00;5068290;28;20052;-51
2021/05/23 06:15:03;;;;;;;1.63;0.90;;;11.30;75.00;;;11.67;61.00;97603.66;5066251;28;20053;-49
2021/05/23 06:17:32;;;;;;;5.55;1.15;;;11.40;74.90;;;11.72;60.52;97607.47;5066659;28;20055;-53
2021/05/23 06:20:01;;;;;;;6.65;1.20;;;11.40;74.40;;;11.70;60.15;97606.00;5068280;28;20367;-48
2021/05/23 06:22:29;;;;;;;1.75;0.93;;;11.40;74.00;;;11.72;60.49;97612.81;5067739;28;20074;-49
2021/05/23 06:24:57;;;;;;;1.43;0.80;;;11.40;74.10;;;11.72;60.39;97599.47;5048014;28;20237;-50
2021/05/23 06:27:25;;;;;;;2.70;1.20;;;11.40;73.60;;;11.75;60.49;97607.16;5066345;28;20050;-50
2021/05/23 06:29:54;;;;;;;2.47;1.17;;;11.50;73.70;;;11.78;60.54;97606.78;5067240;28;20244;-51
2021/05/23 06:32:22;;;;;;;2.70;1.77;;;11.50;73.90;;;11.82;60.43;97601.97;5082871;28;20052;-49
2021/05/23 06:34:51;;;;;;;1.50;0.80;;;11.60;74.00;;;11.84;60.62;97594.63;5065686;28;20056;-51
2021/05/23 06:37:19;;;;;;;1.83;1.00;;;11.60;73.90;;;11.89;60.39;97603.00;5066803;28;20245;-51
2021/05/23 06:39:47;;;;;;;1.10;0.90;;;11.60;73.40;;;11.91;60.17;97600.97;5066598;28;20078;-49
2021/05/23 06:42:15;;;;;;;1.17;0.90;;;11.70;73.00;;;11.93;60.01;97603.47;5067706;28;20048;-53
2021/05/23 06:44:44;;;;;;;1.55;1.08;;;11.70;72.80;;;12.00;60.34;97609.81;5066549;28;20346;-49
2021/05/23 06:47:12;;;;;;;2.15;1.20;;;11.90;72.70;;;12.01;60.07;97614.13;5066316;28;20059;-54
2021/05/23 06:49:40;;;;;;;2.45;1.13;;;11.90;72.50;;;12.02;60.17;97608.63;5066690;28;20052;-55
2021/05/23 06:52:09;;;;;;;2.55;1.15;;;11.90;74.00;;;12.09;60.11;97611.44;5066302;28;20050;-52
2021/05/23 06:54:37;;;;;;;1.73;1.55;;;11.90;73.80;;;12.12;60.62;97611.09;5064516;28;20052;-53
2021/05/23 06:57:05;;;;;;;1.10;1.00;;;11.90;73.80;;;12.13;60.37;97612.75;5080450;28;20060;-50
2021/05/23 06:59:37;;;;;;;2.30;1.10;;;11.90;73.10;;;12.11;60.47;97614.75;5065272;28;20056;-52
2021/05/23 07:02:05;;;;;;;2.33;0.90;;;11.90;73.50;;;12.05;60.66;97610.09;5065690;28;20052;-50
2021/05/23 07:04:33;;;;;;;2.25;1.23;;;11.80;74.70;;;11.92;60.59;97616.00;5065340;28;20060;-54
2021/05/23 07:07:02;;;;;;;2.30;0.90;;;11.70;73.70;;;11.92;60.01;97612.47;5065215;28;20045;-52
2021/05/23 07:09:30;;;;;;;2.60;1.15;;;11.60;73.30;;;11.95;60.04;97620.97;5064877;28;20393;-53
2021/05/23 07:11:58;;;;;;;3.40;1.00;;;11.70;73.20;;;12.00;59.79;97629.31;5064880;28;20049;-55
2021/05/23 07:14:27;;;;;;;0.80;0.80;;;11.80;72.90;;;12.10;60.15;97634.47;5064035;28;20048;-54
2021/05/23 07:16:57;;;;;;;1.30;0.77;;;12.00;72.70;;;12.10;60.08;97637.13;5064138;28;20062;-49
2021/05/23 07:19:25;;;;;;;2.72;1.50;;;11.90;72.70;;;12.19;60.43;97646.78;5065404;28;20346;-48
2021/05/23 07:21:53;;;;;;;3.47;2.05;;;12.00;73.40;;;12.07;58.50;97639.28;5065896;28;20277;-53
2021/05/23 07:24:21;;;;;;;1.58;0.88;;;11.90;70.30;;;11.97;59.52;97656.31;5064427;28;20060;-51
2021/05/23 07:26:49;;;;;;;0.90;0.70;;;11.70;71.80;;;11.95;59.41;97660.16;5063079;28;20056;-49
2021/05/23 07:29:18;;;;;;;2.15;0.85;;;11.70;72.60;;;11.69;61.47;97663.00;5047246;28;20045;-53
2021/05/23 07:31:46;;;;;;;3.63;1.08;;;11.40;74.90;;;11.58;60.03;97664.19;5065106;28;20520;-50
2021/05/23 07:34:14;;;;;;;2.10;1.20;;;11.30;74.30;;;11.49;61.32;97651.84;5065535;28;20063;-51
2021/05/23 07:36:42;;;;;;;2.67;1.90;;;11.10;75.30;;;11.55;60.79;97652.00;5063666;28;20048;-48
2021/05/23 07:39:11;;;;;;;3.30;0.75;;;11.20;74.90;;;11.54;60.14;97652.19;5065040;28;20053;-50
2021/05/23 07:41:39;;;;;;;0.93;0.83;;;11.20;73.90;;;11.58;60.36;97645.50;5064594;28;20317;-50
2021/05/23 07:44:07;;;;;;;1.27;0.87;;;11.30;74.50;;;11.57;60.59;97646.50;5065507;28;20207;-51
2021/05/23 07:46:35;;;;;;;1.70;0.80;;;11.30;74.10;;;11.54;60.34;97655.66;5065388;28;20048;-51
2021/05/23 07:49:04;;;;;;;1.07;0.63;;;11.20;73.90;;;11.46;60.56;97652.16;5063356;28;20055;-50
2021/05/23 07:51:32;;;;;;;0.85;0.77;;;11.10;74.20;;;11.42;60.52;97659.69;5063199;28;20245;-49
2021/05/23 07:54:00;;;;;;;1.50;0.90;;;11.10;75.20;;;11.40;60.98;97656.34;5063244;28;20048;-52
2021/05/23 07:56:28;;;;;;;0.93;0.70;;;11.10;74.90;;;11.40;60.84;97656.34;5063601;28;20505;-50
2021/05/23 07:58:56;;;;;;;0.57;0.57;;;11.10;74.70;;;11.41;60.92;97655.34;5062559;28;20048;-51
2021/05/23 08:01:25;;;;;;;3.10;0.80;;;11.10;75.10;;;11.45;60.69;97654.00;5032715;28;20382;-49
2021/05/23 08:03:53;;;;;;;1.43;0.90;;;11.20;74.30;;;11.49;61.25;97654.50;5032670;28;20049;-47
2021/05/23 08:06:21;;;;;;;1.70;1.00;;;11.30;74.60;;;11.58;61.08;97657.00;5032768;28;20476;-52
2021/05/23 08:08:49;;;;;;;2.77;1.10;;;11.40;74.20;;;11.67;61.14;97655.19;5033723;28;20059;-50
2021/05/23 08:11:17;;;;;;;2.40;1.17;;;11.50;74.50;;;11.79;61.22;97663.66;5047184;28;20243;-48
2021/05/23 08:13:45;;;;;;;1.57;1.10;;;11.70;74.60;;;11.83;60.87;97657.81;5036224;28;20041;-51
2021/05/23 08:16:14;;;;;;;1.67;1.07;;;11.80;74.30;;;11.92;61.39;97661.34;5046765;28;20219;-48
2021/05/23 08:18:42;;;;;;;1.75;0.80;;;11.90;74.80;;;11.95;60.23;97666.31;5041389;28;20342;-50
2021/05/23 08:21:10;;;;;;;1.23;1.05;;;12.00;71.40;;;11.98;59.89;97673.16;5042166;28;20588;-52
2021/05/23 08:23:38;;;;;;;2.00;0.90;;;12.00;70.70;;;11.58;59.98;97680.19;5040238;28;20049;-52
2021/05/23 08:26:07;;;;;;;3.42;1.35;;;11.50;70.80;;;11.72;59.75;97668.81;5024337;28;20071;-50
2021/05/23 08:28:35;;;;;;;1.33;1.10;;;11.70;71.40;;;11.67;59.60;97668.50;5045220;28;20053;-53
2021/05/23 08:31:04;;;;;;;1.02;0.80;;;11.70;71.00;;;11.69;59.38;97681.66;5043666;28;20342;-50
2021/05/23 08:33:36;;;;;;;1.75;0.93;;;11.70;70.00;;;11.81;59.85;97677.66;5044273;28;20048;-48
2021/05/23 08:36:05;;;;;;;4.47;0.90;;;11.90;71.30;;;12.02;59.95;97678.00;5044782;28;20064;-49
2021/05/23 08:38:33;;;;;;;1.55;0.85;;;12.10;71.40;;;11.91;58.87;97683.69;5045414;28;20059;-51
2021/05/23 08:41:03;;;;;;;3.20;0.77;;;12.10;69.00;;;12.14;58.74;97681.13;5045023;28;20063;-52
2021/05/23 08:43:31;;;;;;;1.48;0.80;;;12.30;68.40;;;12.29;58.20;97678.63;5044182;28;20071;-51
2021/05/23 08:46:00;;;;;;;4.03;0.95;;;12.50;68.60;;;12.35;56.07;97685.09;5044813;28;20047;-52
2021/05/23 08:48:29;;;;;;;1.17;0.75;;;12.60;64.70;;;12.40;57.13;97683.56;5044271;28;20055;-52
2021/05/23 08:50:57;;;;;;;1.88;1.17;;;12.60;66.70;;;12.47;57.23;97678.38;5045256;28;20063;-48
2021/05/23 08:53:26;;;;;;;2.35;1.30;;;12.60;66.90;;;12.59;57.03;97687.66;5043718;28;20053;-55
2021/05/23 08:55:54;;;;;;;1.42;0.90;;;12.70;67.40;;;12.57;55.44;97692.34;5044889;28;20586;-52
2021/05/23 08:58:26;;;;;;;3.42;0.98;;;12.80;64.90;;;12.51;54.29;97684.22;5042437;28;20063;-51
2021/05/23 09:00:54;;;;;;;2.38;1.30;;;12.70;62.50;;;12.55;55.48;97686.34;5044808;28;20052;-51
2021/05/23 09:03:23;;;;;;;2.50;1.10;;;12.70;65.00;;;12.73;55.45;97687.97;5040058;28;20055;-48
2021/05/23 09:05:57;;;;;;;1.88;1.05;;;12.90;64.50;;;12.72;55.33;97686.31;5027537;28;20117;-51
2021/05/23 09:08:29;;;;;;;1.50;0.93;;;12.90;64.40;;;12.63;54.06;97684.66;5029837;28;20355;-47
2021/05/23 09:11:00;;;;;;;1.67;0.90;;;12.70;62.80;;;12.37;53.95;97691.94;5022669;28;20068;-53
2021/05/23 09:13:33;;;;;;;2.20;0.90;;;12.50;62.70;;;12.38;53.47;97712.25;5023854;28;20237;-51
2021/05/23 09:16:09;;;;;;;0.68;0.60;;;12.60;62.20;;;12.42;53.00;97691.41;5042632;28;20255;-53
2021/05/23 09:18:54;;;;;;;1.00;0.82;;;12.60;61.40;;;12.48;52.21;97704.06;5046057;28;20249;-50
2021/05/23 09:21:35;;;;;;;2.40;0.80;;;12.60;60.60;;;12.44;53.80;97713.41;5047116;28;20052;-50
2021/05/23 09:24:10;;;;;;;1.95;1.05;;;12.60;63.00;;;12.52;54.13;97709.91;5047316;28;20064;-48
2021/05/23 09:26:51;;;;;;;4.07;2.20;;;12.60;63.50;;;12.46;54.44;97716.75;5045837;28;20564;-51
2021/05/23 09:29:22;;;;;;;2.25;1.13;;;12.70;63.60;;;12.31;54.88;97713.13;5047390;28;20057;-49
2021/05/23 09:32:03;;;;;;;1.63;1.13;;;12.50;64.40;;;12.27;56.96;97726.00;5047675;28;20425;-49
2021/05/23 09:34:32;;;;;;;0.98;0.73;;;12.50;67.00;;;12.13;56.64;97721.34;5031386;28;20059;-52
2021/05/23 09:37:00;;;;;;;1.65;1.17;;;12.20;66.60;;;12.00;55.48;97712.03;5045462;28;20049;-51
2021/05/23 09:39:37;;;;;;;2.72;2.10;;;12.10;64.80;;;12.02;55.21;97719.88;5046405;28;20061;-53
2021/05/23 09:42:11;;;;;;;2.38;0.90;;;12.00;65.30;;;12.00;56.27;97719.19;5029829;28;20615;-54
2021/05/23 09:44:41;;;;;;;1.65;0.77;;;12.00;66.40;;;12.29;55.89;97732.00;5047795;28;20057;-52
2021/05/23 09:47:12;;;;;;;1.98;1.58;;;12.30;66.20;;;12.18;56.05;97727.84;5046329;28;20377;-52
2021/05/23 09:49:46;;;;;;;2.00;1.00;;;12.30;65.50;;;12.43;55.89;97729.59;5048176;28;20037;-52
2021/05/23 09:52:17;;;;;;;2.15;0.98;;;12.60;65.70;;;12.53;56.51;97736.44;5048197;28;20235;-50
2021/05/23 09:54:52;;;;;;;1.38;0.80;;;12.70;66.10;;;12.44;57.50;97741.97;5048316;28;20040;-51
2021/05/23 09:57:25;;;;;;;0.85;0.85;;;12.60;67.40;;;12.45;57.55;97755.16;5047900;28;20055;-50
2021/05/23 10:00:05;;;;;;;3.85;1.88;;;12.60;67.80;;;12.54;56.99;97747.94;5047344;28;20347;-52
2021/05/23 10:02:54;;;;;;;2.35;0.80;;;12.50;68.20;;;12.60;56.65;97734.75;5025940;28;20351;-52
2021/05/23 10:05:24;;;;;;;1.83;0.80;;;12.60;67.30;;;12.69;56.01;97738.22;5027419;28;20079;-49
2021/05/23 10:07:53;;;;;;;0.80;0.80;;;12.60;67.00;;;12.79;56.64;97736.19;5026439;28;20240;-53
2021/05/23 10:10:21;;;;;;;0.95;0.88;;;12.70;68.20;;;12.83;56.72;97733.97;5027040;28;20056;-52
2021/05/23 10:12:50;;;;;;;1.38;0.75;;;12.80;68.20;;;12.82;57.28;97739.53;5027060;28;20059;-51
2021/05/23 10:15:18;;;;;;;1.58;1.20;;;12.70;68.50;;;12.94;56.90;97744.28;5027877;28;20051;-53
2021/05/23 10:17:58;;;;;;;2.70;1.17;;;13.00;67.80;;;13.06;56.50;97739.41;5025362;28;20075;-49
2021/05/23 10:20:28;;;;;;;1.20;0.93;;;13.10;67.40;;;13.11;56.50;97739.72;5027802;28;20055;-53
2021/05/23 10:23:00;;;;;;;3.08;1.00;;;13.20;66.80;;;13.26;55.64;97744.31;5026193;28;20041;-53
2021/05/23 10:25:29;;;;;;;1.02;0.80;;;13.40;65.30;;;13.23;54.64;97740.16;5027630;28;20343;-52
2021/05/23 10:28:02;;;;;;;1.60;1.05;;;13.40;63.30;;;13.44;54.58;97742.22;5027493;28;20049;-51
2021/05/23 10:30:31;;;;;;;1.05;0.98;;;13.70;63.50;;;13.52;53.39;97739.50;5028579;28;20045;-51
2021/05/23 10:33:10;;;;;;;3.25;0.77;;;13.90;61.20;;;13.59;52.34;97729.75;5025547;28;20046;-48